Terminal Aerodrome Forecast
Issued by NWS Grand Forks, ND

Home | Current Version | Previous Version | Graphics & Text | Print | Product List | Glossary Off
Versions: 1 2 3 4 5 6 7 8 9 10 11 12 13 14 15 16

000
FTUS43 KFGF 172321
TAFFAR
TAF
KFAR 172321Z 1800/1824 33008KT P6SM BKN200
     FM180900 32006KT P6SM FEW200
     FM181300 32009KT P6SM BKN050
     FM181600 32014KT P6SM BKN050
     FM181900 32017G25KT P6SM SCT090
     FM182300 31012KT P6SM FEW250=

USA.gov is the U.S. government's official web portal to all federal, state and local government web resources and services.